Time;durP1;ratioP1;P1;durP2;ratioP2;P2;SDS_P1;SDS_P2;PMS_P1;PMS_P2;Temp;Humidity;BMP_temperature;BMP_pressure;BME280_temperature;BME280_humidity;BME280_pressure;Samples;Min_cycle;Max_cycle;Signal;HPM_P1;HPM_P2
2022/02/14 00:01:23;;;;;;;12.90;8.90;;;;;;;-3.97;65.95;98127.35;109900;1252;69463;-69
2022/02/14 00:03:53;;;;;;;14.20;9.30;;;;;;;-3.99;65.65;98127.52;110018;1250;59749;-68
2022/02/14 00:06:22;;;;;;;18.80;12.00;;;;;;;-4.02;66.50;98120.72;109906;1251;59733;-67
2022/02/14 00:08:51;;;;;;;9.70;8.00;;;;;;;-4.03;67.21;98121.40;110215;1247;71556;-68
2022/02/14 00:11:24;;;;;;;12.10;6.80;;;;;;;-4.05;65.99;98120.22;110115;1248;67856;-68
2022/02/14 00:13:54;;;;;;;14.50;9.20;;;;;;;-4.05;64.78;98120.91;109929;1250;68471;-66
2022/02/14 00:16:23;;;;;;;17.20;11.60;;;;;;;-4.00;64.99;98118.84;109927;1250;59682;-69
2022/02/14 00:18:53;;;;;;;23.40;14.70;;;;;;;-3.98;67.52;98118.66;110073;1250;59688;-68
2022/02/14 00:21:22;;;;;;;23.20;13.60;;;;;;;-3.99;66.88;98119.34;109862;1251;71546;-71
2022/02/14 00:23:52;;;;;;;22.30;14.20;;;;;;;-4.00;68.10;98116.98;109941;1250;68933;-68
2022/02/14 00:26:21;;;;;;;21.30;14.00;;;;;;;-3.99;67.59;98116.80;109868;1250;68608;-68
2022/02/14 00:28:51;;;;;;;16.40;10.50;;;;;;;-4.00;66.91;98112.55;109776;1248;59759;-69
2022/02/14 00:31:20;;;;;;;19.20;13.50;;;;;;;-4.00;66.66;98113.91;109988;1247;59714;-68
2022/02/14 00:33:50;;;;;;;14.80;9.10;;;;;;;-4.02;67.00;98112.90;110158;1248;71498;-68
2022/02/14 00:36:19;;;;;;;30.10;18.00;;;;;;;-4.03;67.34;98109.65;109994;1250;67695;-69
2022/02/14 00:38:49;;;;;;;22.40;14.60;;;;;;;-4.04;69.18;98107.10;109972;1250;69641;-67
2022/02/14 00:41:20;;;;;;;23.00;12.80;;;;;;;-4.04;66.98;98099.78;110016;1250;59772;-68
2022/02/14 00:43:52;;;;;;;17.00;11.20;;;;;;;-4.01;66.23;98097.73;109906;1250;59749;-72
2022/02/14 00:46:22;;;;;;;18.40;11.90;;;;;;;-4.00;65.95;98092.96;110166;1247;71351;-71
2022/02/14 00:48:51;;;;;;;18.70;12.10;;;;;;;-3.99;65.94;98092.27;109845;1251;66872;-71
2022/02/14 00:51:23;;;;;;;18.70;11.60;;;;;;;-4.01;66.98;98085.64;109957;1249;69696;-71
2022/02/14 00:53:52;;;;;;;13.20;9.00;;;;;;;-4.03;67.15;98085.13;110179;1250;59685;-68
2022/02/14 00:56:22;;;;;;;35.30;21.50;;;;;;;-4.05;66.29;98080.56;110149;1248;59746;-72
2022/02/14 00:58:52;;;;;;;31.40;19.60;;;;;;;-4.08;71.98;98079.88;109939;1250;71432;-68
2022/02/14 01:01:23;;;;;;;28.90;17.90;;;;;;;-4.07;71.90;98078.52;110166;1248;68550;-69
2022/02/14 01:03:54;;;;;;;28.50;17.30;;;;;;;-4.08;70.70;98077.66;110159;1249;68602;-67
2022/02/14 01:06:26;;;;;;;42.10;24.90;;;;;;;-4.07;70.45;98074.60;109992;1250;59686;-68
2022/02/14 01:08:57;;;;;;;40.60;24.10;;;;;;;-4.11;70.68;98068.48;110155;1247;59657;-69
2022/02/14 01:11:26;;;;;;;37.80;23.50;;;;;;;-4.13;71.46;98070.70;110057;1250;70901;-71
2022/02/14 01:13:56;;;;;;;23.10;15.80;;;;;;;-4.17;72.79;98070.55;110152;1247;67717;-72
2022/02/14 01:16:25;;;;;;;22.10;14.00;;;;;;;-4.20;70.79;98065.45;110162;1249;68643;-71
2022/02/14 01:18:55;;;;;;;36.40;23.00;;;;;;;-4.24;71.68;98058.84;110000;1250;59712;-72
2022/02/14 01:21:26;;;;;;;32.00;21.00;;;;;;;-4.29;75.21;98054.42;110099;1250;59694;-71
2022/02/14 01:23:56;;;;;;;26.60;16.40;;;;;;;-4.31;73.88;98051.36;109899;1251;70736;-72
2022/02/14 01:26:28;;;;;;;19.20;13.50;;;;;;;-4.32;72.26;98050.70;109964;1250;69899;-71
2022/02/14 01:28:58;;;;;;;18.50;13.40;;;;;;;-4.35;71.21;98049.34;109987;1250;68617;-71
2022/02/14 01:31:28;;;;;;;18.20;10.80;;;;;;;-4.37;70.97;98050.02;109976;1248;59753;-69
2022/02/14 01:33:58;;;;;;;29.10;18.00;;;;;;;-4.40;69.28;98046.63;110187;1248;59687;-67
2022/02/14 01:36:28;;;;;;;17.50;11.80;;;;;;;-4.44;69.66;98047.33;109970;1250;71575;-70
2022/02/14 01:38:58;;;;;;;;;;;;;;;-4.48;70.05;98047.34;110168;1249;67943;-68
2022/02/14 01:41:28;;;;;;;20.10;12.70;;;;;;;-4.52;70.23;98045.48;110182;1247;69404;-67
2022/02/14 01:44:00;;;;;;;15.60;11.20;;;;;;;-4.56;69.51;98043.12;109953;1250;59748;-68
2022/02/14 01:46:30;;;;;;;16.70;12.60;;;;;;;-4.62;69.12;98039.04;110254;1247;59663;-68
2022/02/14 01:49:00;;;;;;;18.00;12.60;;;;;;;-4.66;68.88;98037.19;110028;1247;70070;-70
2022/02/14 01:51:34;;;;;;;17.70;14.00;;;;;;;-4.70;68.99;98040.43;110073;1250;68521;-68
2022/02/14 01:54:04;;;;;;;14.20;10.30;;;;;;;-4.74;69.42;98036.52;109953;1250;69404;-71
2022/02/14 01:56:35;;;;;;;20.40;13.00;;;;;;;-4.78;69.36;98035.17;110252;1247;59718;-69
2022/02/14 01:59:05;;;;;;;18.10;11.00;;;;;;;-4.81;69.43;98036.53;109870;1250;59721;-66
2022/02/14 02:01:36;;;;;;;26.30;16.20;;;;;;;-4.84;69.51;98031.27;110012;1250;71425;-70
2022/02/14 02:04:07;;;;;;;;;;;;;;;-4.88;70.80;98028.05;110124;1250;68633;-71
2022/02/14 02:06:36;;;;;;;20.80;13.40;;;;;;;-4.91;70.26;98027.37;109911;1247;69381;-69
2022/02/14 02:09:08;;;;;;;22.80;16.50;;;;;;;-4.94;70.22;98025.52;110012;1249;59751;-68
2022/02/14 02:14:25;;;;;;;36.40;20.30;;;;;;;-5.07;74.64;98026.71;110128;1247;70573;-71
2022/02/14 02:16:55;;;;;;;22.60;13.70;;;;;;;-5.16;75.60;98024.17;110207;1246;68605;-68
2022/02/14 02:19:25;;;;;;;29.20;16.90;;;;;;;-5.18;72.73;98026.55;110019;1250;69280;-68
2022/02/14 02:21:55;;;;;;;29.60;17.70;;;;;;;-5.21;71.21;98026.22;109839;1250;59780;-67
2022/02/14 02:24:25;;;;;;;22.20;12.60;;;;;;;-5.24;73.08;98023.33;109919;1250;59695;-69
2022/02/14 02:27:04;;;;;;;21.40;14.80;;;;;;;-5.26;71.76;98020.10;109797;1250;71730;-70
2022/02/14 02:29:38;;;;;;;25.60;16.30;;;;;;;-5.26;71.53;98022.14;110188;1247;68073;-68
2022/02/14 02:32:10;;;;;;;24.70;14.80;;;;;;;-5.28;72.80;98020.77;109917;1248;69428;-67
2022/02/14 02:34:42;;;;;;;24.00;14.00;;;;;;;-5.29;73.37;98019.93;110041;1249;59720;-68
2022/02/14 02:37:14;;;;;;;15.80;9.60;;;;;;;-5.28;73.03;98016.36;109880;1248;59755;-67
2022/02/14 02:39:45;;;;;;;11.30;7.30;;;;;;;-5.28;71.70;98012.10;110197;1247;71474;-68
2022/02/14 02:42:18;;;;;;;13.90;9.00;;;;;;;-5.27;70.10;98011.09;110159;1250;68568;-68
2022/02/14 02:44:50;;;;;;;17.50;11.10;;;;;;;-5.25;69.22;98009.73;109546;1248;734662;-70
2022/02/14 02:47:22;;;;;;;18.60;11.30;;;;;;;-5.24;69.12;98010.92;110014;1250;59760;-71
2022/02/14 02:49:52;;;;;;;31.00;18.10;;;;;;;-5.27;71.39;98008.71;110176;1250;59694;-71
2022/02/14 02:52:24;;;;;;;26.50;16.90;;;;;;;-5.34;73.81;98005.31;109994;1250;70740;-71
2022/02/14 02:54:56;;;;;;;29.00;18.10;;;;;;;-5.38;72.65;98005.32;110175;1250;68445;-71
2022/02/14 02:57:47;;;;;;;15.90;10.70;;;;;;;-5.42;74.21;98006.01;110154;1249;68563;-71
2022/02/14 03:00:17;;;;;;;30.60;16.80;;;;;;;-5.45;71.93;98004.14;110030;1250;59758;-72
2022/02/14 03:02:48;;;;;;;25.80;17.50;;;;;;;-5.48;72.69;98005.83;110187;1250;59750;-71
2022/02/14 03:05:19;;;;;;;;;;;;;;;-5.50;74.52;98005.66;110183;1248;71519;-72
2022/02/14 03:07:48;;;;;;;16.10;9.30;;;;;;;-5.50;71.77;98010.75;109931;1248;67559;-70
2022/02/14 03:10:18;;;;;;;17.40;11.80;;;;;;;-5.53;72.28;98005.84;109955;1250;68623;-72
2022/02/14 03:12:48;;;;;;;;;;;;;;;-5.55;73.29;98007.00;110079;1248;59753;-68
2022/02/14 03:15:18;;;;;;;12.10;8.20;;;;;;;-5.55;72.12;98008.20;109936;1250;59714;-68
2022/02/14 03:17:51;;;;;;;14.30;7.90;;;;;;;-5.57;71.02;98006.17;109917;1250;70983;-69
2022/02/14 03:20:21;;;;;;;12.50;9.50;;;;;;;-5.59;70.49;98003.78;110157;1248;67718;-67
2022/02/14 03:22:53;;;;;;;19.20;12.70;;;;;;;-5.62;72.27;98002.77;110137;1250;67661;-68
2022/02/14 03:25:23;;;;;;;14.40;9.90;;;;;;;-5.67;72.72;98002.42;110209;1250;59761;-68
2022/02/14 03:27:55;;;;;;;21.10;13.90;;;;;;;-5.69;72.05;97998.34;110140;1248;59681;-67
2022/02/14 03:30:25;;;;;;;25.50;16.00;;;;;;;-5.74;73.88;98000.38;110181;1250;71980;-69
2022/02/14 03:32:55;;;;;;;14.90;10.20;;;;;;;-5.77;75.03;97999.52;110177;1250;67827;-71
2022/02/14 03:35:28;;;;;;;12.30;9.50;;;;;;;-5.79;73.47;98000.53;110072;1250;69394;-69
2022/02/14 03:37:59;;;;;;;22.10;14.90;;;;;;;-5.82;73.17;98000.88;110070;1250;59712;-69
2022/02/14 03:40:29;;;;;;;27.90;17.50;;;;;;;-5.84;74.33;98000.87;109974;1250;59691;-70
2022/02/14 03:43:00;;;;;;;23.70;13.80;;;;;;;-5.86;75.82;98000.20;110104;1248;70743;-70
2022/02/14 03:45:31;;;;;;;21.60;13.00;;;;;;;-5.89;74.65;97998.31;110167;1249;68763;-67
2022/02/14 03:48:01;;;;;;;24.60;14.80;;;;;;;-5.91;74.03;97998.50;110166;1247;69670;-71
2022/02/14 03:50:31;;;;;;;24.90;16.30;;;;;;;-5.95;74.94;97995.12;110223;1248;59713;-68
2022/02/14 03:53:01;;;;;;;13.20;9.00;;;;;;;-5.96;73.91;97992.05;109917;1250;59686;-68
2022/02/14 03:55:32;;;;;;;9.10;7.30;;;;;;;-5.96;72.81;97992.73;110163;1247;71595;-68
2022/02/14 03:58:03;;;;;;;17.30;11.20;;;;;;;-5.97;72.34;97993.24;110063;1249;68677;-68
2022/02/14 04:00:33;;;;;;;14.10;9.60;;;;;;;-5.98;72.48;97990.18;110208;1250;69243;-67
2022/02/14 04:03:02;;;;;;;12.50;8.60;;;;;;;-5.97;72.16;97989.16;110138;1250;59674;-67
2022/02/14 04:05:32;;;;;;;12.70;8.00;;;;;;;-5.96;72.41;97987.48;110177;1250;59753;-68
2022/02/14 04:08:03;;;;;;;21.80;12.90;;;;;;;-5.91;70.35;97985.27;110149;1250;71342;-69
2022/02/14 04:10:34;;;;;;;23.60;14.10;;;;;;;-5.80;72.16;97983.55;110187;1247;67714;-68
2022/02/14 04:13:03;;;;;;;19.70;11.70;;;;;;;-5.76;71.73;97980.52;109988;1250;69390;-68
2022/02/14 04:15:32;;;;;;;21.20;12.80;;;;;;;-5.72;71.29;97979.66;109836;1251;59693;-71
2022/02/14 04:18:01;;;;;;;23.20;13.90;;;;;;;-5.68;71.23;97975.94;109936;1250;58867;-73
2022/02/14 04:20:31;;;;;;;22.00;13.10;;;;;;;-5.66;71.12;97974.58;110154;1250;71338;-73
2022/02/14 04:23:01;;;;;;;26.10;17.10;;;;;;;-5.68;71.22;97973.39;110197;1248;68272;-68
2022/02/14 04:25:31;;;;;;;36.30;20.60;;;;;;;-5.72;73.91;97973.05;110127;1248;69415;-69
2022/02/14 04:28:00;;;;;;;26.80;14.10;;;;;;;-5.76;75.31;97971.85;109959;1250;60056;-68
2022/02/14 04:30:31;;;;;;;19.70;13.10;;;;;;;-5.79;73.21;97969.45;110006;1248;59688;-68
2022/02/14 04:33:00;;;;;;;17.00;10.70;;;;;;;-5.81;72.89;97967.95;110132;1248;70638;-68
2022/02/14 04:35:32;;;;;;;23.60;14.80;;;;;;;-5.84;72.31;97971.33;110181;1250;69334;-68
2022/02/14 04:38:03;;;;;;;19.70;13.20;;;;;;;-5.87;73.28;97971.84;109913;1250;68645;-68
2022/02/14 04:40:37;;;;;;;16.80;12.50;;;;;;;-5.90;72.99;97973.71;109966;1250;59687;-69
2022/02/14 04:43:07;;;;;;;13.70;9.90;;;;;;;-5.93;72.96;97975.59;110033;1250;59653;-70
2022/02/14 04:45:37;;;;;;;20.90;13.60;;;;;;;-5.95;72.71;97971.53;109939;1250;70802;-70
2022/02/14 04:48:06;;;;;;;24.20;16.50;;;;;;;-5.96;74.62;97973.72;109892;1250;67847;-72
2022/02/14 04:50:36;;;;;;;;;;;;;;;-5.99;74.73;97975.59;110192;1250;68636;-69
2022/02/14 04:53:08;;;;;;;17.00;11.40;;;;;;;-6.01;74.69;97977.11;109952;1248;59760;-72
2022/02/14 04:55:38;;;;;;;13.00;8.90;;;;;;;-6.05;75.19;97975.92;109995;1250;59761;-72
2022/02/14 04:58:09;;;;;;;14.20;8.90;;;;;;;-6.07;74.30;97980.83;110117;1250;72048;-71
2022/02/14 05:00:40;;;;;;;11.20;8.30;;;;;;;-6.09;73.96;97980.67;109971;1250;68762;-67
2022/02/14 05:03:09;;;;;;;24.30;13.00;;;;;;;-6.09;74.18;97982.02;109859;1250;68401;-67
2022/02/14 05:05:39;;;;;;;12.00;8.30;;;;;;;-6.10;75.25;97978.61;110070;1250;59835;-68
2022/02/14 05:08:08;;;;;;;15.70;9.90;;;;;;;-6.09;73.08;97980.48;109946;1250;59664;-67
2022/02/14 05:10:37;;;;;;;18.40;11.80;;;;;;;-6.05;71.55;97977.27;109916;1250;70831;-67
2022/02/14 05:13:07;;;;;;;20.90;11.30;;;;;;;-5.99;72.46;97974.41;109981;1249;66710;-71
2022/02/14 05:15:36;;;;;;;19.10;11.10;;;;;;;-5.98;73.43;97975.58;110045;1250;68644;-69
2022/02/14 05:18:06;;;;;;;24.00;15.40;;;;;;;-5.94;72.51;97976.45;109976;1250;59723;-69
2022/02/14 05:20:35;;;;;;;17.10;10.30;;;;;;;-5.92;73.20;97978.30;109783;1250;59717;-70
2022/02/14 05:23:08;;;;;;;21.70;12.00;;;;;;;-5.85;73.31;97985.59;109910;1250;70968;-70
2022/02/14 05:25:38;;;;;;;20.80;11.80;;;;;;;-5.80;73.97;97990.17;109905;1250;68709;-71
2022/02/14 05:28:10;;;;;;;22.20;14.10;;;;;;;-5.76;74.41;97986.80;109970;1250;68455;-71
2022/02/14 05:30:39;;;;;;;22.40;13.30;;;;;;;-5.75;74.44;97991.38;110161;1250;59722;-70
2022/02/14 05:33:10;;;;;;;23.50;14.30;;;;;;;-5.79;73.94;97998.33;110066;1250;59611;-68
2022/02/14 05:35:41;;;;;;;17.60;10.70;;;;;;;-5.82;74.36;97996.30;110062;1250;71499;-68
2022/02/14 05:38:11;;;;;;;27.70;15.20;;;;;;;-5.82;73.59;97996.95;109975;1250;69499;-68
2022/02/14 05:40:40;;;;;;;16.20;10.00;;;;;;;-5.82;73.29;97999.17;109818;1250;68624;-68
2022/02/14 05:43:09;;;;;;;22.60;12.40;;;;;;;-5.81;73.10;98003.09;109944;1251;59767;-68
2022/02/14 05:45:39;;;;;;;18.30;11.30;;;;;;;-5.79;73.42;98003.41;109965;1251;59705;-67
2022/02/14 05:48:08;;;;;;;27.40;16.20;;;;;;;-5.74;72.76;97998.51;110021;1248;70834;-68
2022/02/14 05:50:37;;;;;;;26.60;17.00;;;;;;;-5.72;76.76;98000.55;109833;1251;67913;-68
2022/02/14 05:53:06;;;;;;;17.60;10.80;;;;;;;-5.71;78.16;98005.81;110102;1249;67739;-69
2022/02/14 05:55:35;;;;;;;21.90;12.70;;;;;;;-5.66;75.65;98003.77;110122;1251;59721;-69
2022/02/14 05:58:04;;;;;;;27.70;17.60;;;;;;;-5.58;74.99;98002.42;110030;1251;59712;-65
2022/02/14 06:00:34;;;;;;;24.50;14.60;;;;;;;-5.55;76.31;98006.33;109897;1250;70816;-71
2022/02/14 06:03:03;;;;;;;36.20;20.20;;;;;;;-5.49;74.66;98007.70;109906;1251;67830;-69
2022/02/14 06:05:32;;;;;;;23.00;13.90;;;;;;;-5.44;74.31;98009.06;109979;1252;68393;-69
2022/02/14 06:08:01;;;;;;;18.30;12.60;;;;;;;-5.39;74.22;98010.75;109894;1250;59745;-71
2022/02/14 06:10:30;;;;;;;20.70;12.70;;;;;;;-5.32;73.59;98012.79;109968;1250;59721;-69
2022/02/14 06:12:59;;;;;;;28.30;17.20;;;;;;;-5.25;74.04;98014.48;109966;1250;70835;-69
2022/02/14 06:15:28;;;;;;;22.50;15.00;;;;;;;-5.17;74.30;98017.37;109996;1251;68601;-69
2022/02/14 06:17:57;;;;;;;25.90;14.70;;;;;;;-5.08;73.80;98018.38;109992;1250;69451;-67
2022/02/14 06:20:26;;;;;;;30.10;20.40;;;;;;;-4.98;74.39;98021.27;110075;1250;59684;-67
2022/02/14 06:22:56;;;;;;;31.20;20.10;;;;;;;-4.90;76.11;98018.02;110021;1250;59699;-69
2022/02/14 06:25:25;;;;;;;26.10;16.60;;;;;;;-4.79;75.19;98017.66;109887;1251;70587;-70
2022/02/14 06:27:54;;;;;;;27.50;16.70;;;;;;;-4.67;73.80;98018.98;109956;1250;68547;-73
2022/02/14 06:30:23;;;;;;;22.10;13.70;;;;;;;-4.54;73.41;98019.46;109954;1250;69469;-69
2022/02/14 06:32:53;;;;;;;21.10;12.70;;;;;;;-4.41;73.01;98018.90;109884;1251;59696;-67
2022/02/14 06:35:23;;;;;;;19.80;11.60;;;;;;;-4.27;72.62;98017.66;110076;1249;59752;-70
2022/02/14 06:37:53;;;;;;;24.80;16.20;;;;;;;-4.10;72.28;98014.34;109997;1251;71510;-68
2022/02/14 06:40:22;;;;;;;34.90;19.50;;;;;;;-3.90;71.57;98014.41;109871;1251;66830;-70
2022/02/14 06:42:51;;;;;;;37.20;24.50;;;;;;;-3.71;71.40;98009.36;109836;1250;68473;-67
2022/02/14 06:45:20;;;;;;;38.10;20.50;;;;;;;-3.49;71.19;98007.84;109913;1250;59722;-68
2022/02/14 06:47:53;;;;;;;32.60;19.70;;;;;;;-3.19;71.16;98015.09;109925;1250;60175;-71
2022/02/14 06:50:22;;;;;;;27.80;18.30;;;;;;;-2.78;71.21;98018.98;109995;1250;71686;-68
2022/02/14 06:52:53;;;;;;;37.10;22.50;;;;;;;-2.30;71.06;98019.48;109940;1250;67855;-70
2022/02/14 06:55:23;;;;;;;25.70;18.20;;;;;;;-1.76;70.23;98013.31;110142;1248;68657;-70
2022/02/14 06:57:52;;;;;;;39.50;25.40;;;;;;;-1.20;70.11;98014.17;110162;1248;59728;-74
2022/02/14 07:00:21;;;;;;;35.20;23.80;;;;;;;-0.71;68.75;98011.43;110206;1248;59732;-70
2022/02/14 07:02:50;;;;;;;59.60;36.90;;;;;;;-0.30;68.60;98009.46;110170;1251;71472;-70
2022/02/14 07:05:22;;;;;;;32.20;21.70;;;;;;;0.04;63.98;98009.46;109920;1251;68598;-70
2022/02/14 07:07:51;;;;;;;39.50;23.50;;;;;;;0.40;63.05;98010.88;110051;1249;68664;-71
2022/02/14 07:10:20;;;;;;;40.10;26.70;;;;;;;0.62;58.61;98011.06;110173;1248;59746;-69
2022/02/14 07:12:49;;;;;;;50.70;29.00;;;;;;;0.94;60.59;98011.33;109986;1251;59662;-69
2022/02/14 07:15:21;;;;;;;41.00;25.80;;;;;;;1.43;63.22;98010.77;109982;1247;71566;-73
2022/02/14 07:17:52;;;;;;;39.10;23.60;;;;;;;1.96;63.57;98008.43;109997;1249;68614;-71
2022/02/14 07:20:22;;;;;;;52.60;27.80;;;;;;;2.52;63.42;98004.16;110158;1250;69490;-72
2022/02/14 07:22:51;;;;;;;65.80;42.00;;;;;;;3.11;60.32;98005.00;110165;1248;59699;-70
2022/02/14 07:25:20;;;;;;;72.50;45.10;;;;;;;3.42;55.65;98002.77;110188;1248;59630;-72
2022/02/14 07:27:50;;;;;;;67.40;42.40;;;;;;;3.86;55.01;97999.30;110033;1251;71482;-69
2022/02/14 07:30:19;;;;;;;61.00;41.80;;;;;;;3.95;51.44;97999.14;110185;1247;69204;-71
2022/02/14 07:32:49;;;;;;;57.70;38.60;;;;;;;4.07;51.57;97993.88;110190;1247;68740;-71
2022/02/14 07:35:18;;;;;;;55.40;39.20;;;;;;;4.28;49.79;97998.23;109988;1251;59745;-67
2022/02/14 07:37:48;;;;;;;51.80;37.00;;;;;;;4.75;50.88;97996.92;110163;1250;59679;-67
2022/02/14 07:40:17;;;;;;;47.90;34.20;;;;;;;5.14;49.78;97995.52;109907;1250;71609;-69
2022/02/14 07:42:51;;;;;;;38.10;26.70;;;;;;;5.70;47.77;97988.27;109864;1251;67931;-68
2022/02/14 07:45:21;;;;;;;35.80;26.70;;;;;;;6.39;49.87;97985.35;109986;1251;69436;-69
2022/02/14 07:47:51;;;;;;;40.30;27.90;;;;;;;6.94;48.04;97982.89;109974;1251;59763;-68
2022/02/14 07:50:23;;;;;;;37.10;26.60;;;;;;;7.28;45.64;97982.92;109995;1250;59765;-66
2022/02/14 07:52:52;;;;;;;40.30;30.10;;;;;;;7.72;46.78;97985.35;109962;1250;71552;-67
2022/02/14 07:55:22;;;;;;;30.10;22.80;;;;;;;8.19;45.84;97982.52;109978;1250;67709;-67
2022/02/14 07:57:51;;;;;;;40.50;28.80;;;;;;;8.45;45.45;97979.54;109987;1250;68815;-67
2022/02/14 08:00:22;;;;;;;36.60;27.80;;;;;;;8.52;41.86;97976.71;110074;1250;59694;-66
2022/02/14 08:02:51;;;;;;;41.40;30.70;;;;;;;8.57;40.03;97974.02;110027;1251;59902;-66
2022/02/14 08:05:21;;;;;;;39.00;28.10;;;;;;;8.40;39.87;97971.17;109907;1251;70816;-71
2022/02/14 08:07:56;;;;;;;33.50;25.10;;;;;;;8.50;39.85;97972.86;110175;1247;67961;-74
2022/02/14 08:10:45;;;;;;;41.40;29.60;;;;;;;8.79;40.86;97972.41;109930;1251;69677;-70
2022/02/14 08:13:14;;;;;;;32.00;23.60;;;;;;;8.45;39.09;97967.55;109949;1250;59734;-72
2022/02/14 08:15:43;;;;;;;38.60;27.70;;;;;;;8.77;39.19;97965.92;109830;1251;59781;-74
2022/02/14 08:18:12;;;;;;;32.60;23.80;;;;;;;8.85;38.32;97964.48;109854;1251;71009;-72
2022/02/14 08:20:41;;;;;;;22.40;16.20;;;;;;;8.68;36.74;97962.64;109931;1251;68680;-70
2022/02/14 08:23:10;;;;;;;18.40;13.70;;;;;;;8.97;37.62;97963.08;110048;1247;68324;-69
2022/02/14 08:25:39;;;;;;;16.20;11.40;;;;;;;9.44;36.48;97959.80;109937;1251;59665;-69
2022/02/14 08:28:08;;;;;;;15.50;11.60;;;;;;;10.11;36.30;97953.98;109936;1251;59734;-68
2022/02/14 08:30:37;;;;;;;13.90;10.70;;;;;;;10.71;36.04;97954.36;109984;1251;71591;-67
2022/02/14 08:33:09;;;;;;;18.50;12.50;;;;;;;11.28;35.10;97949.58;109966;1249;67929;-70
2022/02/14 08:35:39;;;;;;;15.80;10.90;;;;;;;11.74;33.30;97943.48;110090;1250;69469;-68
2022/02/14 08:38:09;;;;;;;15.90;11.10;;;;;;;12.07;31.84;97942.59;110069;1251;59763;-72
2022/02/14 08:40:38;;;;;;;16.60;12.50;;;;;;;12.61;33.09;97942.42;109984;1247;59683;-72
2022/02/14 08:43:08;;;;;;;15.00;11.20;;;;;;;12.93;31.10;97942.20;109930;1251;71614;-71
2022/02/14 08:45:58;;;;;;;14.50;10.30;;;;;;;13.60;29.88;97938.86;109857;1251;68207;-73
2022/02/14 08:48:30;;;;;;;;;;;;;;;14.17;29.85;97933.39;109856;1250;68699;-72
2022/02/14 08:50:59;;;;;;;14.30;10.70;;;;;;;14.66;29.08;97936.31;110057;1250;59688;-72
2022/02/14 08:53:33;;;;;;;10.50;8.30;;;;;;;14.84;26.88;97932.79;109964;1250;59729;-68
2022/02/14 08:56:07;;;;;;;10.50;7.50;;;;;;;15.07;27.10;97931.02;109781;1251;71856;-73
2022/02/14 08:58:41;;;;;;;10.60;8.80;;;;;;;15.40;26.88;97930.34;109843;1251;68889;-73
2022/02/14 09:01:11;;;;;;;10.80;8.20;;;;;;;15.31;24.90;97930.94;109769;1251;68976;-68
2022/02/14 09:03:42;;;;;;;13.30;11.10;;;;;;;15.60;25.06;97933.34;109971;1250;59799;-73
2022/02/14 09:06:14;;;;;;;10.20;8.00;;;;;;;14.15;24.74;97934.39;109697;1250;59718;-74
2022/02/14 09:08:47;;;;;;;9.60;8.50;;;;;;;14.74;26.36;97935.86;109916;1251;71427;-71
2022/02/14 09:11:20;;;;;;;11.00;8.10;;;;;;;15.35;25.70;97937.68;109766;1251;68569;-71
2022/02/14 09:13:52;;;;;;;9.70;7.20;;;;;;;16.08;25.41;97938.51;109745;1251;70491;-72
2022/02/14 09:16:26;;;;;;;11.70;8.30;;;;;;;16.80;24.30;97940.72;109623;1251;59752;-73
2022/02/14 09:18:58;;;;;;;8.60;7.60;;;;;;;16.98;22.30;97941.91;109695;1251;59640;-69
2022/02/14 09:21:30;;;;;;;7.40;6.60;;;;;;;16.93;22.58;97939.55;109714;1251;70534;-71
2022/02/14 09:24:05;;;;;;;8.80;7.20;;;;;;;16.87;21.20;97937.19;109881;1251;68443;-73
2022/02/14 09:26:37;;;;;;;10.80;8.00;;;;;;;17.23;22.20;97937.08;110010;1249;68547;-69
2022/02/14 09:29:11;;;;;;;9.20;7.40;;;;;;;17.10;21.50;97934.33;109986;1250;59730;-74
2022/02/14 09:31:53;;;;;;;10.90;7.60;;;;;;;16.24;21.58;97931.52;109788;1250;59706;-69
2022/02/14 09:34:26;;;;;;;8.40;6.60;;;;;;;16.42;22.22;97933.59;109815;1251;71531;-73
2022/02/14 09:36:59;;;;;;;12.10;10.10;;;;;;;16.97;23.32;97929.08;109834;1251;67336;-73
2022/02/14 09:39:31;;;;;;;12.40;9.20;;;;;;;17.33;22.63;97931.89;109707;1248;68615;-74
2022/02/14 09:42:04;;;;;;;9.40;7.80;;;;;;;17.37;22.55;97932.58;109619;1251;59744;-74
2022/02/14 09:45:00;;;;;;;12.00;9.60;;;;;;;17.58;22.55;97930.29;109774;1251;60154;-73
2022/02/14 09:47:46;;;;;;;9.20;7.30;;;;;;;17.22;21.17;97926.01;110032;1248;70967;-69
2022/02/14 09:50:21;;;;;;;10.40;8.20;;;;;;;16.73;21.07;97920.63;109838;1248;67882;-70
2022/02/14 09:52:58;;;;;;;11.20;9.40;;;;;;;15.53;22.07;97917.96;109762;1251;69537;-70
2022/02/14 09:55:40;;;;;;;9.90;8.30;;;;;;;14.11;23.99;97915.28;109950;1247;59637;-72
2022/02/14 09:58:27;;;;;;;11.60;8.20;;;;;;;14.99;24.34;97907.48;109937;1248;59694;-71
2022/02/14 10:00:59;;;;;;;9.60;7.60;;;;;;;15.59;24.30;97905.08;109896;1251;71189;-68
2022/02/14 10:03:35;;;;;;;11.30;7.90;;;;;;;16.26;24.30;97903.89;109737;1251;67672;-68
2022/02/14 10:06:10;;;;;;;9.60;7.30;;;;;;;16.89;24.10;97898.77;110014;1247;68722;-69
2022/02/14 10:09:19;;;;;;;12.30;8.80;;;;;;;17.45;23.16;97892.04;109673;1251;59703;-70
2022/02/14 10:12:05;;;;;;;12.30;9.10;;;;;;;17.66;21.86;97880.73;109827;1252;59745;-68
2022/02/14 10:15:05;;;;;;;9.20;7.40;;;;;;;17.25;21.80;97880.63;109845;1248;71585;-73
2022/02/14 10:17:39;;;;;;;10.20;8.40;;;;;;;18.15;21.46;97877.11;109756;1248;67654;-73
2022/02/14 10:20:22;;;;;;;9.50;6.90;;;;;;;18.68;20.44;97872.46;109726;1248;70298;-74
2022/02/14 10:23:05;;;;;;;10.30;7.10;;;;;;;19.00;19.87;97868.64;109815;1248;59802;-68
2022/02/14 10:25:43;;;;;;;11.50;9.60;;;;;;;19.29;19.93;97861.69;109785;1248;59758;-71
2022/02/14 10:28:21;;;;;;;10.30;7.70;;;;;;;19.12;19.36;97861.70;109614;1248;71545;-68
2022/02/14 10:31:08;;;;;;;9.90;7.50;;;;;;;19.64;19.09;97855.64;109847;1251;68571;-73
2022/02/14 10:33:55;;;;;;;11.40;8.40;;;;;;;20.40;19.45;97856.50;109780;1247;69426;-69
2022/02/14 10:36:36;;;;;;;11.10;8.90;;;;;;;20.64;17.66;97849.75;109734;1248;59706;-74
2022/02/14 10:39:23;;;;;;;11.80;9.00;;;;;;;19.92;18.16;97842.41;109881;1248;60096;-73
2022/02/14 10:42:00;;;;;;;9.90;7.60;;;;;;;18.86;18.23;97834.20;110021;1247;69999;-74
2022/02/14 10:47:35;;;;;;;8.30;6.90;;;;;;;18.31;18.92;97829.91;109983;1248;69453;-74
2022/02/14 10:50:10;;;;;;;9.90;8.40;;;;;;;19.20;18.55;97822.83;110058;1250;59993;-73
2022/02/14 10:52:56;;;;;;;9.80;8.40;;;;;;;19.21;18.60;97821.94;109754;1251;59747;-68
2022/02/14 10:55:42;;;;;;;9.10;6.90;;;;;;;19.34;18.63;97816.23;110023;1248;71479;-75
2022/02/14 10:58:26;;;;;;;10.30;7.40;;;;;;;19.82;19.00;97816.81;109646;1248;67858;-70
2022/02/14 11:01:00;;;;;;;10.40;8.40;;;;;;;20.46;18.70;97816.98;109983;1247;69560;-76
2022/02/14 11:03:47;;;;;;;10.70;8.60;;;;;;;20.76;18.02;97811.73;109704;1248;59727;-74
2022/02/14 11:06:36;;;;;;;11.80;9.50;;;;;;;20.69;17.99;97806.32;109842;1251;59737;-73
2022/02/14 11:09:12;;;;;;;8.60;7.20;;;;;;;20.11;17.65;97801.15;110027;1247;71139;-70
2022/02/14 11:11:50;;;;;;;8.70;6.90;;;;;;;19.45;18.61;97794.77;109820;1248;68507;-69
2022/02/14 11:14:26;;;;;;;7.80;6.30;;;;;;;19.90;18.71;97797.00;109853;1250;69651;-71
2022/02/14 11:17:00;;;;;;;11.50;9.30;;;;;;;19.66;17.60;97789.62;109805;1251;59698;-69
2022/02/14 11:19:37;;;;;;;11.00;8.70;;;;;;;19.19;17.77;97787.31;109715;1250;59703;-73
2022/02/14 11:22:12;;;;;;;9.50;7.70;;;;;;;19.21;17.78;97784.92;109764;1247;72368;-70
2022/02/14 11:24:52;;;;;;;9.30;7.40;;;;;;;19.56;17.78;97786.98;109778;1248;68719;-74
2022/02/14 11:27:33;;;;;;;9.70;7.40;;;;;;;20.23;17.43;97783.63;109955;1247;69592;-76
2022/02/14 11:30:08;;;;;;;8.70;7.00;;;;;;;20.95;16.98;97779.30;109770;1249;59697;-74
2022/02/14 11:33:19;;;;;;;10.30;7.10;;;;;;;21.67;16.80;97774.14;109962;1251;59808;-70
2022/02/14 11:36:07;;;;;;;8.20;6.70;;;;;;;22.43;15.77;97770.92;109904;1250;71577;-73
2022/02/14 11:38:41;;;;;;;10.60;7.20;;;;;;;22.84;15.89;97760.52;109901;1251;67856;-74
2022/02/14 11:41:42;;;;;;;9.40;7.80;;;;;;;22.35;15.22;97761.20;109563;1251;70063;-72
2022/02/14 11:44:22;;;;;;;7.80;6.50;;;;;;;22.97;15.92;97761.30;109556;1251;59782;-69